createdAt,value
2019-05-29T00:00:19.632Z,12.50
2019-05-29T00:05:22.113Z,12.40
2019-05-29T00:10:24.520Z,12.40
2019-05-29T00:15:26.944Z,12.40
2019-05-29T00:20:29.470Z,12.30
2019-05-29T00:25:31.863Z,12.30
2019-05-29T00:30:34.331Z,12.40
2019-05-29T00:35:36.632Z,12.40
2019-05-29T00:40:39.135Z,12.50
2019-05-29T00:45:41.535Z,12.50
2019-05-29T00:50:44.016Z,12.50
2019-05-29T00:55:46.412Z,12.50
2019-05-29T01:00:48.863Z,12.40
2019-05-29T01:05:52.084Z,12.40
2019-05-29T01:10:54.551Z,12.40
2019-05-29T01:15:56.875Z,12.40
2019-05-29T01:20:59.323Z,12.40
2019-05-29T01:26:01.851Z,12.40
2019-05-29T01:31:04.329Z,12.40
2019-05-29T01:36:07.000Z,12.30
2019-05-29T01:41:09.334Z,12.30
2019-05-29T01:46:11.775Z,12.40
2019-05-29T01:51:15.418Z,12.40
2019-05-29T01:56:19.784Z,12.40
2019-05-29T02:01:23.928Z,12.40
2019-05-29T02:06:26.541Z,12.40
2019-05-29T02:11:32.122Z,12.40
2019-05-29T02:16:33.346Z,12.40
2019-05-29T02:21:35.816Z,12.40
2019-05-29T02:26:38.700Z,12.30
2019-05-29T02:31:41.224Z,12.30
2019-05-29T02:36:43.610Z,12.30
2019-05-29T02:41:46.029Z,12.30
2019-05-29T02:46:48.426Z,12.30
2019-05-29T02:51:50.979Z,12.30
2019-05-29T02:56:53.403Z,12.30
2019-05-29T03:01:55.888Z,12.30
2019-05-29T03:06:59.237Z,12.30
2019-05-29T03:12:02.113Z,12.30
2019-05-29T03:17:04.519Z,12.30
2019-05-29T03:22:07.287Z,12.30
2019-05-29T03:27:09.710Z,12.30
2019-05-29T03:32:14.468Z,12.30
2019-05-29T03:37:16.590Z,12.30
2019-05-29T03:42:18.996Z,12.30
2019-05-29T03:47:21.380Z,12.30
2019-05-29T03:52:26.347Z,12.40
2019-05-29T03:57:29.801Z,12.40
2019-05-29T04:02:35.558Z,12.40
2019-05-29T04:07:39.011Z,12.40
2019-05-29T04:12:41.445Z,12.50
2019-05-29T04:17:44.736Z,12.60
2019-05-29T04:22:50.368Z,12.70
2019-05-29T04:27:55.859Z,12.80
2019-05-29T04:32:58.302Z,12.90
2019-05-29T04:38:00.925Z,13.00
2019-05-29T04:43:03.397Z,13.10
2019-05-29T04:48:05.876Z,13.30
2019-05-29T04:53:08.434Z,13.40
2019-05-29T04:58:10.977Z,13.60
2019-05-29T05:03:13.374Z,13.60
2019-05-29T05:08:15.902Z,13.80
2019-05-29T05:13:19.369Z,14.00
2019-05-29T05:18:22.138Z,14.20
2019-05-29T05:23:24.650Z,14.40
2019-05-29T05:28:27.299Z,14.60
2019-05-29T05:33:32.461Z,14.70
2019-05-29T05:38:36.702Z,15.00
2019-05-29T05:43:39.457Z,15.20
2019-05-29T05:48:42.021Z,15.30
2019-05-29T05:53:44.467Z,15.60
2019-05-29T05:58:46.896Z,15.60
2019-05-29T06:03:49.335Z,15.80
2019-05-29T06:08:51.680Z,16.10
2019-05-29T06:13:54.076Z,16.30
2019-05-29T06:18:56.698Z,16.40
2019-05-29T06:23:59.074Z,16.60
2019-05-29T06:29:02.233Z,16.60
2019-05-29T06:34:04.635Z,17.00
2019-05-29T06:39:07.415Z,17.00
2019-05-29T06:44:09.821Z,17.00
2019-05-29T06:49:12.226Z,17.10
2019-05-29T06:54:14.907Z,17.30
2019-05-29T06:59:17.394Z,17.50
2019-05-29T07:04:19.982Z,17.70
2019-05-29T07:09:22.399Z,17.50
2019-05-29T07:14:25.247Z,17.80
2019-05-29T07:19:47.032Z,18.10
2019-05-29T07:24:33.499Z,18.20
2019-05-29T07:29:37.007Z,18.20
2019-05-29T07:34:51.313Z,18.20
2019-05-29T07:39:43.626Z,18.50
2019-05-29T07:44:46.298Z,18.40
2019-05-29T07:49:50.337Z,18.10
2019-05-29T07:54:53.521Z,17.80
2019-05-29T07:59:56.315Z,17.90
2019-05-29T08:04:58.859Z,17.80
2019-05-29T08:10:01.442Z,17.70
2019-05-29T08:15:05.018Z,18.00
2019-05-29T08:20:09.687Z,18.20
2019-05-29T08:25:13.796Z,18.20
2019-05-29T08:30:17.516Z,18.20
2019-05-29T08:35:20.055Z,18.40
2019-05-29T08:40:22.496Z,18.80
2019-05-29T08:45:24.886Z,19.20
2019-05-29T08:50:27.485Z,19.20
2019-05-29T08:55:29.912Z,19.20
2019-05-29T09:00:32.291Z,19.20
2019-05-29T09:05:34.731Z,19.50
2019-05-29T09:10:37.181Z,19.70
2019-05-29T09:15:39.713Z,19.60
2019-05-29T09:21:01.020Z,19.20
2019-05-29T09:25:46.639Z,18.70
2019-05-29T09:30:56.596Z,18.50
2019-05-29T09:35:59.144Z,18.30
2019-05-29T09:41:01.580Z,18.00
2019-05-29T09:46:04.129Z,17.70
2019-05-29T09:51:20.542Z,17.30
2019-05-29T09:56:10.947Z,16.90
2019-05-29T10:01:23.067Z,16.60
2019-05-29T10:06:17.925Z,16.60
2019-05-29T10:11:22.437Z,16.40
2019-05-29T10:16:25.671Z,16.20
2019-05-29T10:21:39.267Z,16.20
2019-05-29T10:26:32.900Z,16.10
2019-05-29T10:31:38.430Z,15.90
2019-05-29T10:36:42.250Z,16.00
2019-05-29T10:41:45.131Z,15.90
2019-05-29T10:46:49.900Z,16.00
2019-05-29T10:52:07.661Z,16.30
2019-05-29T10:56:56.587Z,16.50
2019-05-29T11:01:59.279Z,16.60
2019-05-29T11:07:01.713Z,16.80
2019-05-29T11:12:06.610Z,16.70
2019-05-29T11:17:11.822Z,16.50
2019-05-29T11:22:25.639Z,16.40
2019-05-29T11:27:19.598Z,16.30
2019-05-29T11:32:22.020Z,16.40
2019-05-29T11:37:24.510Z,16.50
2019-05-29T11:42:28.357Z,16.50
2019-05-29T11:47:30.989Z,17.00
2019-05-29T11:52:42.264Z,17.30
2019-05-29T11:57:39.667Z,18.00
2019-05-29T12:02:42.055Z,18.20
2019-05-29T12:07:46.730Z,19.00
2019-05-29T12:13:17.899Z,19.90
2019-05-29T12:18:27.285Z,20.30
2019-05-29T12:23:29.854Z,20.20
2019-05-29T12:28:32.452Z,20.40
2019-05-29T12:33:35.313Z,20.50
2019-05-29T12:38:37.820Z,20.00
2019-05-29T12:43:40.443Z,19.90
2019-05-29T12:48:42.900Z,20.60
2019-05-29T12:53:45.412Z,20.60
2019-05-29T12:58:47.869Z,19.70
2019-05-29T13:03:50.399Z,20.00
2019-05-29T13:08:54.413Z,20.90
2019-05-29T13:13:58.341Z,21.00
2019-05-29T13:19:03.265Z,20.80
2019-05-29T13:24:10.880Z,21.10
2019-05-29T13:29:10.979Z,21.10
2019-05-29T13:34:16.814Z,20.00
2019-05-29T13:39:22.413Z,19.20
2019-05-29T13:44:25.818Z,19.20
2019-05-29T13:49:28.852Z,19.60
2019-05-29T13:54:31.385Z,19.70
2019-05-29T13:59:35.050Z,20.90
2019-05-29T14:04:39.645Z,20.80
2019-05-29T14:09:42.069Z,19.50
2019-05-29T14:14:44.554Z,18.80
2019-05-29T14:19:48.347Z,18.30
2019-05-29T14:24:51.909Z,18.10
2019-05-29T14:29:54.348Z,17.90
2019-05-29T14:35:24.571Z,17.80
2019-05-29T14:40:27.281Z,17.80
2019-05-29T14:45:31.132Z,17.90
2019-05-29T14:50:33.770Z,17.80
2019-05-29T14:55:43.512Z,17.70
2019-05-29T15:01:05.511Z,18.10
2019-05-29T15:06:08.064Z,19.50
2019-05-29T15:11:12.048Z,19.90
2019-05-29T15:16:15.014Z,19.40
2019-05-29T15:21:23.061Z,18.90
2019-05-29T15:32:19.651Z,18.90
2019-05-29T15:37:35.136Z,21.80
2019-05-29T15:42:51.215Z,24.80
2019-05-29T15:47:54.201Z,24.30
2019-05-29T15:52:59.764Z,23.00
2019-05-29T15:58:07.082Z,22.40
2019-05-29T16:03:11.570Z,22.20
2019-05-29T16:08:18.371Z,22.00
2019-05-29T16:13:21.368Z,21.40
2019-05-29T16:18:29.023Z,20.90
2019-05-29T16:23:35.648Z,20.40
2019-05-29T16:28:33.653Z,20.00
2019-05-29T16:33:36.297Z,20.30
2019-05-29T16:38:38.959Z,21.10
2019-05-29T16:43:41.538Z,20.10
2019-05-29T16:49:01.595Z,19.30
2019-05-29T16:54:04.467Z,18.50
2019-05-29T16:59:06.978Z,18.10
2019-05-29T17:04:09.749Z,17.80
2019-05-29T17:09:18.413Z,17.70
2019-05-29T17:14:31.638Z,17.60
2019-05-29T17:19:40.708Z,17.50
2019-05-29T17:24:44.427Z,17.60
2019-05-29T17:35:51.976Z,17.90
2019-05-29T17:40:56.932Z,17.70
2019-05-29T17:46:04.911Z,17.50
2019-05-29T17:51:07.571Z,17.40
2019-05-29T17:56:25.227Z,17.40
2019-05-29T18:01:16.168Z,17.30
2019-05-29T18:06:20.595Z,17.10
2019-05-29T18:11:29.893Z,17.00
2019-05-29T18:16:37.317Z,16.90
2019-05-29T18:21:53.777Z,16.80
2019-05-29T18:27:05.220Z,16.70
2019-05-29T18:32:12.995Z,16.70
2019-05-29T18:42:44.570Z,16.50
2019-05-29T18:47:47.386Z,16.50
2019-05-29T18:52:50.244Z,16.30
2019-05-29T18:57:53.750Z,16.20
2019-05-29T19:03:06.652Z,16.10
2019-05-29T19:08:10.183Z,16.00
2019-05-29T19:13:14.300Z,15.90
2019-05-29T19:18:17.414Z,15.80
2019-05-29T19:29:31.185Z,15.70
2019-05-29T19:39:51.614Z,15.50
2019-05-29T19:45:12.953Z,15.50
2019-05-29T19:50:33.188Z,15.30
2019-05-29T19:55:38.224Z,15.20
2019-05-29T20:00:43.586Z,15.10
2019-05-29T20:05:46.293Z,15.00
2019-05-29T20:10:49.210Z,14.90
2019-05-29T20:15:54.060Z,14.90
2019-05-29T20:21:01.165Z,14.90
2019-05-29T20:31:36.723Z,14.70
2019-05-29T20:36:40.050Z,14.60
2019-05-29T20:41:44.497Z,14.50
2019-05-29T20:46:50.689Z,14.40
2019-05-29T20:51:54.108Z,14.40
2019-05-29T20:57:22.519Z,14.40
2019-05-29T21:02:25.212Z,14.30
2019-05-29T21:07:28.048Z,14.30
2019-05-29T21:12:30.648Z,14.30
2019-05-29T21:17:33.736Z,14.30
2019-05-29T21:34:11.188Z,14.20
2019-05-29T21:39:17.663Z,14.20
2019-05-29T21:44:20.278Z,14.20
2019-05-29T21:49:22.781Z,14.20
2019-05-29T21:54:25.710Z,14.20
2019-05-29T21:59:28.259Z,14.10
2019-05-29T22:04:32.180Z,14.00
2019-05-29T22:09:34.961Z,14.00
2019-05-29T22:14:37.501Z,13.90
2019-05-29T22:19:40.240Z,13.80
2019-05-29T22:24:42.719Z,13.80
2019-05-29T22:29:45.350Z,13.60
2019-05-29T22:34:47.809Z,13.50
2019-05-29T22:39:51.479Z,13.40
2019-05-29T22:44:54.058Z,13.20
2019-05-29T22:49:57.833Z,13.00
2019-05-29T22:55:02.221Z,12.80
2019-05-29T23:00:07.941Z,12.60
2019-05-29T23:05:10.706Z,12.30
2019-05-29T23:10:14.640Z,12.00
2019-05-29T23:15:17.119Z,11.90
2019-05-29T23:20:19.910Z,11.60
2019-05-29T23:25:22.478Z,11.40
2019-05-29T23:30:24.942Z,11.20
2019-05-29T23:35:27.610Z,10.90
2019-05-29T23:40:30.142Z,10.70
2019-05-29T23:45:32.612Z,10.50
2019-05-29T23:50:35.040Z,10.30
2019-05-29T23:55:37.460Z,10.10
